Time;durP1;ratioP1;P1;durP2;ratioP2;P2;SDS_P1;SDS_P2;PMS_P1;PMS_P2;Temp;Humidity;BMP_temperature;BMP_pressure;BME280_temperature;BME280_humidity;BME280_pressure;Samples;Min_cycle;Max_cycle;Signal;HPM_P1;HPM_P2
2021/08/18 00:00:23;;;;;;;7.93;4.80;;;16.40;99.90;;;;;;5029491;28;20041;-41
2021/08/18 00:02:49;;;;;;;7.47;5.28;;;16.40;99.90;;;;;;5029458;28;20049;-41
2021/08/18 00:05:16;;;;;;;6.75;5.80;;;16.40;99.90;;;;;;5029092;28;20014;-41
2021/08/18 00:07:42;;;;;;;5.22;4.40;;;16.40;99.90;;;;;;5023958;28;20029;-40
2021/08/18 00:10:13;;;;;;;7.68;5.15;;;16.40;99.90;;;;;;5010708;28;20076;-39
2021/08/18 00:12:39;;;;;;;5.45;4.63;;;16.40;99.90;;;;;;5028331;28;20045;-40
2021/08/18 00:15:07;;;;;;;5.97;5.40;;;16.30;99.90;;;;;;5029267;28;20315;-42
2021/08/18 00:17:32;;;;;;;5.07;4.28;;;16.40;99.90;;;;;;5029609;28;20025;-42
2021/08/18 00:19:58;;;;;;;6.55;4.82;;;16.40;99.90;;;;;;5029196;28;20377;-39
2021/08/18 00:22:24;;;;;;;7.00;6.30;;;16.40;99.90;;;;;;5028898;28;20377;-39
2021/08/18 00:24:49;;;;;;;6.88;5.75;;;16.30;99.90;;;;;;5027970;28;20600;-42
2021/08/18 00:27:15;;;;;;;6.13;5.47;;;16.30;99.90;;;;;;5029081;28;20476;-43
2021/08/18 00:29:41;;;;;;;7.18;5.68;;;16.30;99.90;;;;;;5029028;28;20400;-39
2021/08/18 00:32:09;;;;;;;5.72;4.60;;;16.30;99.90;;;;;;5028415;28;20033;-40
2021/08/18 00:34:35;;;;;;;6.53;5.32;;;16.30;99.90;;;;;;5029705;28;20032;-41
2021/08/18 00:37:01;;;;;;;6.50;5.68;;;16.30;99.90;;;;;;5028225;28;20033;-40
2021/08/18 00:39:27;;;;;;;6.22;5.63;;;16.30;99.90;;;;;;5029474;28;20068;-37
2021/08/18 00:41:54;;;;;;;5.70;5.15;;;16.30;99.90;;;;;;5028176;28;20014;-39
2021/08/18 00:44:19;;;;;;;5.97;4.72;;;16.30;99.90;;;;;;5029148;28;20126;-43
2021/08/18 00:46:56;;;;;;;5.63;5.13;;;16.30;99.90;;;;;;5028872;28;20481;-41
2021/08/18 00:49:26;;;;;;;8.10;5.78;;;16.30;99.90;;;;;;5018311;28;20047;-42
2021/08/18 00:51:56;;;;;;;6.10;4.90;;;16.30;99.90;;;;;;5028004;28;20622;-38
2021/08/18 00:54:23;;;;;;;7.18;5.25;;;16.20;99.90;;;;;;5029058;28;20028;-42
2021/08/18 00:56:49;;;;;;;6.18;4.60;;;16.30;99.90;;;;;;5027709;28;20025;-43
2021/08/18 00:59:15;;;;;;;5.53;4.38;;;16.30;99.90;;;;;;5029251;28;20018;-40
2021/08/18 01:01:42;;;;;;;4.53;4.05;;;16.30;99.90;;;;;;5029805;28;20022;-40
2021/08/18 01:04:09;;;;;;;3.17;2.88;;;16.30;99.90;;;;;;5032632;28;20048;-40
2021/08/18 01:06:39;;;;;;;5.75;4.18;;;16.20;99.90;;;;;;5033260;28;20083;-41
2021/08/18 01:09:10;;;;;;;5.63;3.80;;;16.30;99.90;;;;;;5031835;28;20091;-42
2021/08/18 01:11:37;;;;;;;7.85;4.80;;;16.30;99.90;;;;;;5032954;28;20471;-39
2021/08/18 01:14:03;;;;;;;4.80;4.15;;;16.30;99.90;;;;;;5031209;28;20430;-40
2021/08/18 01:16:33;;;;;;;6.22;4.55;;;16.30;99.90;;;;;;5033014;28;20029;-42
2021/08/18 01:18:59;;;;;;;4.68;3.55;;;16.30;99.90;;;;;;5032183;28;20040;-39
2021/08/18 01:21:25;;;;;;;5.82;4.10;;;16.30;99.90;;;;;;5032039;28;20021;-41
2021/08/18 01:23:50;;;;;;;5.35;4.15;;;16.30;99.90;;;;;;5031538;28;20372;-40
2021/08/18 01:26:16;;;;;;;4.30;3.90;;;16.30;99.90;;;;;;5032575;28;20037;-41
2021/08/18 01:28:42;;;;;;;5.43;4.00;;;16.30;99.90;;;;;;5031743;28;20014;-39
2021/08/18 01:31:07;;;;;;;5.00;4.18;;;16.30;99.90;;;;;;5030581;28;20532;-44
2021/08/18 01:33:33;;;;;;;4.55;3.78;;;16.30;99.90;;;;;;5032249;28;20087;-37
2021/08/18 01:35:59;;;;;;;6.65;4.40;;;16.30;99.90;;;;;;5031552;28;20121;-42
2021/08/18 01:38:24;;;;;;;8.05;5.20;;;16.30;99.90;;;;;;5031587;28;20010;-41
2021/08/18 01:40:52;;;;;;;5.03;4.57;;;16.30;99.90;;;;;;5031558;28;20112;-41
2021/08/18 01:43:19;;;;;;;7.40;5.10;;;16.30;99.90;;;;;;5031797;28;20030;-39
2021/08/18 01:45:46;;;;;;;6.70;5.28;;;16.30;99.90;;;;;;5028330;28;20053;-43
2021/08/18 01:48:20;;;;;;;9.05;5.10;;;16.30;99.90;;;;;;5032221;28;20475;-42
2021/08/18 01:50:48;;;;;;;6.68;5.00;;;16.30;99.90;;;;;;5029554;28;20052;-40
2021/08/18 01:53:17;;;;;;;5.63;4.60;;;16.30;99.90;;;;;;5032579;28;20068;-40
2021/08/18 01:55:43;;;;;;;5.35;4.45;;;16.30;99.90;;;;;;5031420;28;20022;-40
2021/08/18 01:58:09;;;;;;;5.13;4.60;;;16.30;99.90;;;;;;5031277;28;20067;-42
2021/08/18 02:00:35;;;;;;;6.10;4.60;;;16.30;99.90;;;;;;5032597;28;20029;-36
2021/08/18 02:03:01;;;;;;;8.13;5.30;;;16.30;99.90;;;;;;5030535;28;20424;-40
2021/08/18 02:05:27;;;;;;;6.68;4.60;;;16.30;99.90;;;;;;5032119;28;20472;-40
2021/08/18 02:07:53;;;;;;;5.18;4.68;;;16.30;99.90;;;;;;5031291;28;20026;-40
2021/08/18 02:10:19;;;;;;;4.53;3.63;;;16.30;99.90;;;;;;5031272;28;20029;-43
2021/08/18 02:12:48;;;;;;;6.30;4.18;;;16.30;99.90;;;;;;5031062;28;20386;-43
2021/08/18 02:15:27;;;;;;;5.90;4.22;;;16.30;99.90;;;;;;5030845;28;20068;-42
2021/08/18 02:17:54;;;;;;;6.88;4.32;;;16.30;99.90;;;;;;5030213;28;20412;-42
2021/08/18 02:20:25;;;;;;;6.78;5.13;;;16.30;99.90;;;;;;5031359;28;20009;-40
2021/08/18 02:22:51;;;;;;;8.85;5.18;;;16.30;99.90;;;;;;5030866;28;20093;-35
2021/08/18 02:25:17;;;;;;;5.00;3.75;;;16.20;99.90;;;;;;5030899;28;20056;-39
2021/08/18 02:27:44;;;;;;;5.57;4.57;;;16.20;99.90;;;;;;5031467;28;20442;-40
2021/08/18 02:30:11;;;;;;;7.38;4.47;;;16.20;99.90;;;;;;5031227;28;20021;-40
2021/08/18 02:32:37;;;;;;;7.38;4.40;;;16.20;99.90;;;;;;5030406;28;20756;-40
2021/08/18 02:35:04;;;;;;;5.30;4.50;;;16.20;99.90;;;;;;5031259;28;20104;-40
2021/08/18 02:37:30;;;;;;;5.00;4.25;;;16.20;99.90;;;;;;5027967;28;20065;-42
2021/08/18 02:39:58;;;;;;;6.05;4.88;;;16.20;99.90;;;;;;5030048;28;20111;-41
2021/08/18 02:42:24;;;;;;;4.25;3.85;;;16.20;99.90;;;;;;5031588;28;20024;-41
2021/08/18 02:44:50;;;;;;;5.18;3.90;;;16.20;99.90;;;;;;5030867;28;20424;-41
2021/08/18 02:47:15;;;;;;;4.43;3.80;;;16.30;99.90;;;;;;5030660;28;20462;-42
2021/08/18 02:49:42;;;;;;;3.95;3.08;;;16.30;99.90;;;;;;5031682;28;20017;-41
2021/08/18 02:52:07;;;;;;;7.55;4.10;;;16.30;99.90;;;;;;5030033;28;20389;-40
2021/08/18 02:54:34;;;;;;;4.78;3.67;;;16.30;99.90;;;;;;5030703;28;20018;-36
2021/08/18 02:56:59;;;;;;;5.22;3.60;;;16.30;99.90;;;;;;5030547;28;20067;-42
2021/08/18 02:59:28;;;;;;;3.90;3.42;;;16.30;99.90;;;;;;5030302;28;20053;-40
2021/08/18 03:01:53;;;;;;;4.03;3.60;;;16.20;99.90;;;;;;5030018;28;20354;-40
2021/08/18 03:04:22;;;;;;;3.97;2.90;;;16.20;99.90;;;;;;5030470;28;20048;-44
2021/08/18 03:06:52;;;;;;;6.18;3.63;;;16.30;99.90;;;;;;5029468;28;20673;-41
2021/08/18 03:09:18;;;;;;;4.97;3.25;;;16.20;99.90;;;;;;5030525;28;20363;-44
2021/08/18 03:11:43;;;;;;;5.80;3.08;;;16.30;99.90;;;;;;5030353;28;20523;-41
2021/08/18 03:14:09;;;;;;;5.72;3.40;;;16.30;99.90;;;;;;5029542;28;20038;-42
2021/08/18 03:16:35;;;;;;;3.42;2.90;;;16.30;99.90;;;;;;5030380;28;20029;-40
2021/08/18 03:19:00;;;;;;;3.80;3.00;;;16.30;99.90;;;;;;5029804;28;20009;-41
2021/08/18 03:21:26;;;;;;;4.20;3.25;;;16.30;99.90;;;;;;5030173;28;20465;-41
2021/08/18 03:23:51;;;;;;;6.25;3.33;;;16.30;99.90;;;;;;5029598;28;20045;-44
2021/08/18 03:26:17;;;;;;;4.82;2.97;;;16.30;99.90;;;;;;5030718;28;20025;-43
2021/08/18 03:28:43;;;;;;;3.45;2.70;;;16.30;99.90;;;;;;5028908;28;20550;-41
2021/08/18 03:31:08;;;;;;;3.55;3.00;;;16.20;99.90;;;;;;5029599;28;20025;-42
2021/08/18 03:33:34;;;;;;;5.90;3.60;;;16.20;99.90;;;;;;5030227;28;20017;-43
2021/08/18 03:35:59;;;;;;;3.10;2.80;;;16.20;99.90;;;;;;5029016;28;20409;-40
2021/08/18 03:38:25;;;;;;;3.97;2.80;;;16.20;99.90;;;;;;5029813;28;20483;-44
2021/08/18 03:40:53;;;;;;;3.75;2.97;;;16.20;99.90;;;;;;5029348;28;20476;-44
2021/08/18 03:43:21;;;;;;;4.72;3.10;;;16.10;99.90;;;;;;5029600;28;20100;-43
2021/08/18 03:45:47;;;;;;;2.88;2.55;;;16.10;99.90;;;;;;5029593;28;20021;-43
2021/08/18 03:48:13;;;;;;;3.17;2.67;;;16.10;99.90;;;;;;5029432;28;20558;-42
2021/08/18 03:50:38;;;;;;;4.45;2.88;;;16.10;99.90;;;;;;5028826;28;20064;-42
2021/08/18 03:53:04;;;;;;;2.45;2.08;;;16.10;99.90;;;;;;5029151;28;20021;-41
2021/08/18 03:55:30;;;;;;;2.72;2.45;;;16.10;99.90;;;;;;5029031;28;20014;-43
2021/08/18 03:57:55;;;;;;;3.63;2.20;;;16.10;99.90;;;;;;5028869;28;20033;-42
2021/08/18 04:00:21;;;;;;;3.05;2.38;;;16.10;99.90;;;;;;5029795;28;20481;-41
2021/08/18 04:02:47;;;;;;;3.85;2.92;;;16.10;99.90;;;;;;5028723;28;20481;-39
2021/08/18 04:05:13;;;;;;;4.57;2.92;;;16.10;99.90;;;;;;5028739;28;20024;-38
2021/08/18 04:07:39;;;;;;;3.10;2.80;;;16.00;99.90;;;;;;5029501;28;20025;-41
2021/08/18 04:10:06;;;;;;;3.42;2.85;;;16.10;99.90;;;;;;5028330;28;20029;-37
2021/08/18 04:12:46;;;;;;;4.25;2.90;;;16.00;99.90;;;;;;5029481;28;20033;-39
2021/08/18 04:15:11;;;;;;;2.92;2.60;;;16.10;99.90;;;;;;5029766;28;20049;-42
2021/08/18 04:17:37;;;;;;;7.35;3.33;;;16.10;99.90;;;;;;5028564;28;20441;-40
2021/08/18 04:20:03;;;;;;;4.78;3.08;;;16.10;99.90;;;;;;5028244;28;20473;-40
2021/08/18 04:22:29;;;;;;;3.72;2.97;;;16.10;99.90;;;;;;5029181;28;20041;-38
2021/08/18 04:24:55;;;;;;;4.90;3.20;;;16.10;99.90;;;;;;5028248;28;20104;-35
2021/08/18 04:27:20;;;;;;;4.28;3.17;;;16.10;99.90;;;;;;5029401;28;20017;-44
2021/08/18 04:29:46;;;;;;;5.72;3.03;;;16.10;99.90;;;;;;5029171;28;20104;-41
2021/08/18 04:32:11;;;;;;;5.80;3.60;;;16.10;99.90;;;;;;5029062;28;20037;-38
2021/08/18 04:34:37;;;;;;;5.53;3.80;;;16.10;99.90;;;;;;5029101;28;20021;-39
2021/08/18 04:37:03;;;;;;;4.53;3.00;;;16.10;99.90;;;;;;5028713;28;20045;-38
2021/08/18 04:39:28;;;;;;;5.00;3.55;;;16.10;99.90;;;;;;5028992;28;20009;-39
2021/08/18 04:41:54;;;;;;;4.28;3.38;;;16.10;99.90;;;;;;5027596;28;20029;-43
2021/08/18 04:44:21;;;;;;;6.07;3.67;;;16.10;99.90;;;;;;5029061;28;20022;-41
2021/08/18 04:46:46;;;;;;;4.82;3.30;;;16.10;99.90;;;;;;5027748;28;20026;-39
2021/08/18 04:49:12;;;;;;;4.68;3.58;;;16.10;99.90;;;;;;5029220;28;20021;-39
2021/08/18 04:51:38;;;;;;;3.75;3.30;;;16.10;99.90;;;;;;5028745;28;20032;-44
2021/08/18 04:54:03;;;;;;;5.18;3.75;;;16.10;99.90;;;;;;5027970;28;20057;-39
2021/08/18 04:56:29;;;;;;;6.07;3.85;;;16.20;99.90;;;;;;5028636;28;20025;-42
2021/08/18 04:58:54;;;;;;;6.35;3.70;;;16.10;99.90;;;;;;5028027;28;20037;-39
2021/08/18 05:01:20;;;;;;;5.93;3.92;;;16.20;99.90;;;;;;5029151;28;20075;-41
2021/08/18 05:03:45;;;;;;;4.45;3.40;;;16.20;99.90;;;;;;5029214;28;20369;-41
2021/08/18 05:06:11;;;;;;;9.25;4.00;;;16.20;99.90;;;;;;5027891;28;20056;-41
2021/08/18 05:08:42;;;;;;;3.85;3.22;;;16.20;99.90;;;;;;5028048;28;20424;-39
2021/08/18 05:11:07;;;;;;;4.45;3.08;;;16.20;99.90;;;;;;5028613;28;20029;-42
2021/08/18 05:13:33;;;;;;;5.05;3.20;;;16.30;99.90;;;;;;5030416;28;20095;-44
2021/08/18 05:15:58;;;;;;;3.75;2.97;;;16.30;99.90;;;;;;5027862;28;20029;-38
2021/08/18 05:18:24;;;;;;;3.65;3.35;;;16.30;99.90;;;;;;5028696;28;20041;-36
2021/08/18 05:20:50;;;;;;;4.60;3.20;;;16.30;99.90;;;;;;5028125;28;20395;-41
2021/08/18 05:23:15;;;;;;;3.85;3.42;;;16.30;99.90;;;;;;5028357;28;20021;-42
2021/08/18 05:25:41;;;;;;;5.05;3.47;;;16.30;99.90;;;;;;5024943;28;20056;-41
2021/08/18 05:28:08;;;;;;;5.28;3.33;;;16.40;99.90;;;;;;5026805;28;20020;-43
2021/08/18 05:30:34;;;;;;;3.55;2.72;;;16.50;99.90;;;;;;5027222;28;20033;-42
2021/08/18 05:32:59;;;;;;;3.83;3.42;;;16.40;99.90;;;;;;5026860;28;20029;-39
2021/08/18 05:35:25;;;;;;;3.33;2.90;;;16.40;99.90;;;;;;5027066;28;20353;-38
2021/08/18 05:37:50;;;;;;;4.68;3.15;;;16.50;99.90;;;;;;5026717;28;20357;-42
2021/08/18 05:40:16;;;;;;;3.15;2.85;;;16.50;99.90;;;;;;5028220;28;20113;-41
2021/08/18 05:42:41;;;;;;;4.57;3.47;;;16.50;99.90;;;;;;5027991;28;20108;-38
2021/08/18 05:45:08;;;;;;;3.42;2.80;;;16.50;99.90;;;;;;5027578;28;20017;-38
2021/08/18 05:47:34;;;;;;;4.28;2.75;;;16.60;99.90;;;;;;5028747;28;20031;-39
2021/08/18 05:49:59;;;;;;;4.93;3.50;;;16.60;99.90;;;;;;5030279;28;20018;-38
2021/08/18 05:52:25;;;;;;;4.07;2.92;;;16.60;99.90;;;;;;5031587;28;20030;-40
2021/08/18 05:54:51;;;;;;;3.88;2.97;;;16.70;99.90;;;;;;5031248;28;20021;-39
2021/08/18 05:57:16;;;;;;;3.08;2.75;;;16.70;99.90;;;;;;5033740;28;20033;-40
2021/08/18 05:59:42;;;;;;;5.68;3.03;;;16.80;99.90;;;;;;5034396;28;20045;-37
2021/08/18 06:02:07;;;;;;;3.10;2.67;;;16.80;99.90;;;;;;5037699;28;20053;-44
2021/08/18 06:04:43;;;;;;;3.30;2.50;;;16.80;99.90;;;;;;5031721;28;20417;-40
2021/08/18 06:07:09;;;;;;;3.40;3.10;;;16.90;99.90;;;;;;5030637;28;20018;-40
2021/08/18 06:09:34;;;;;;;5.32;2.97;;;16.90;99.90;;;;;;5029910;28;20362;-42
2021/08/18 06:12:00;;;;;;;3.65;2.95;;;17.00;99.90;;;;;;5031016;28;20125;-39
2021/08/18 06:14:25;;;;;;;3.78;2.80;;;17.00;99.90;;;;;;5030927;28;20045;-41
2021/08/18 06:16:51;;;;;;;3.25;2.88;;;17.10;99.90;;;;;;5030512;28;20034;-41
2021/08/18 06:19:17;;;;;;;3.58;2.72;;;17.10;99.90;;;;;;5030666;28;20441;-39
2021/08/18 06:21:42;;;;;;;3.60;3.03;;;17.10;99.90;;;;;;5010596;28;20026;-40
2021/08/18 06:24:16;;;;;;;3.88;2.70;;;17.10;99.90;;;;;;5023817;28;20104;-43
2021/08/18 06:26:42;;;;;;;3.13;2.45;;;17.20;99.90;;;;;;5030747;28;20377;-39
2021/08/18 06:29:07;;;;;;;3.90;2.50;;;17.30;99.90;;;;;;5030663;28;20020;-38
2021/08/18 06:31:34;;;;;;;3.08;2.63;;;17.30;99.90;;;;;;5030264;28;20037;-41
2021/08/18 06:34:00;;;;;;;2.72;2.40;;;17.30;99.90;;;;;;5030475;28;20021;-41
2021/08/18 06:36:26;;;;;;;3.78;2.78;;;17.40;99.90;;;;;;5031268;28;20389;-39
2021/08/18 06:38:51;;;;;;;3.00;2.70;;;17.40;99.90;;;;;;5029732;28;20033;-41
2021/08/18 06:41:17;;;;;;;3.08;2.85;;;17.40;99.90;;;;;;5030577;28;20021;-44
2021/08/18 06:43:42;;;;;;;2.50;2.30;;;17.40;99.90;;;;;;5029680;28;20014;-44
2021/08/18 06:46:08;;;;;;;3.90;2.63;;;17.40;99.90;;;;;;5029592;28;20179;-42
2021/08/18 06:48:34;;;;;;;2.58;2.33;;;17.40;99.90;;;;;;5030852;28;20053;-42
2021/08/18 06:51:03;;;;;;;2.88;2.47;;;17.50;99.90;;;;;;5030207;28;20112;-43
2021/08/18 06:53:29;;;;;;;2.85;2.30;;;17.50;99.90;;;;;;5030311;28;20029;-38
2021/08/18 06:55:54;;;;;;;2.95;2.20;;;17.60;99.90;;;;;;5029084;28;20040;-43
2021/08/18 06:58:20;;;;;;;3.80;2.28;;;17.60;99.90;;;;;;5030042;28;20428;-41
2021/08/18 07:00:45;;;;;;;2.63;2.00;;;17.70;99.90;;;;;;5029259;28;20053;-41
2021/08/18 07:03:11;;;;;;;3.55;2.55;;;17.70;99.90;;;;;;5030388;28;20469;-42
2021/08/18 07:05:37;;;;;;;5.13;2.50;;;17.70;99.90;;;;;;5029646;28;20079;-40
2021/08/18 07:08:02;;;;;;;3.40;2.50;;;17.70;99.90;;;;;;5029865;28;20039;-43
2021/08/18 07:10:28;;;;;;;2.88;2.25;;;17.70;99.90;;;;;;5030106;28;20040;-42
2021/08/18 07:12:54;;;;;;;3.65;2.50;;;17.80;99.90;;;;;;5029456;28;20053;-41
2021/08/18 07:15:20;;;;;;;5.00;2.35;;;17.80;99.90;;;;;;5029770;28;20029;-41
2021/08/18 07:17:46;;;;;;;3.35;2.78;;;17.80;99.90;;;;;;5030166;28;20509;-36
2021/08/18 07:20:15;;;;;;;2.58;2.17;;;17.80;99.90;;;;;;5028876;28;20100;-40
2021/08/18 07:22:41;;;;;;;3.00;2.20;;;17.80;99.90;;;;;;5030056;28;20026;-42
2021/08/18 07:25:07;;;;;;;4.25;2.47;;;17.80;99.90;;;;;;5029667;28;20075;-41
2021/08/18 07:27:33;;;;;;;2.58;2.28;;;17.80;99.90;;;;;;5028508;28;20033;-42
2021/08/18 07:29:58;;;;;;;2.88;2.28;;;17.80;99.90;;;;;;5029775;28;20031;-40
2021/08/18 07:32:24;;;;;;;2.50;2.15;;;17.90;99.90;;;;;;5029921;28;20112;-42
2021/08/18 07:34:50;;;;;;;1.98;1.77;;;17.90;99.90;;;;;;5029178;28;20483;-41
2021/08/18 07:37:17;;;;;;;2.35;1.98;;;18.00;99.90;;;;;;5030021;28;20500;-39
2021/08/18 07:39:44;;;;;;;2.35;2.20;;;18.00;99.90;;;;;;5027885;28;20022;-43
2021/08/18 07:42:11;;;;;;;2.65;2.00;;;18.00;99.90;;;;;;5028688;28;20037;-40
2021/08/18 07:44:47;;;;;;;4.13;2.15;;;18.10;99.90;;;;;;5029309;28;20666;-38
2021/08/18 07:47:13;;;;;;;2.42;2.20;;;18.10;99.90;;;;;;5028903;28;20033;-42
2021/08/18 07:49:39;;;;;;;2.97;2.10;;;18.10;99.90;;;;;;5028916;28;20404;-40
2021/08/18 07:52:06;;;;;;;1.50;1.40;;;18.10;99.90;;;;;;5029086;28;20037;-42
2021/08/18 07:54:34;;;;;;;2.83;1.98;;;18.20;99.90;;;;;;5030203;28;20029;-41
2021/08/18 07:57:00;;;;;;;2.15;1.92;;;18.20;99.90;;;;;;5027978;28;20223;-40
2021/08/18 07:59:26;;;;;;;2.35;1.90;;;18.30;99.90;;;;;;5029364;28;20628;-41
2021/08/18 08:01:52;;;;;;;2.83;2.03;;;18.30;99.90;;;;;;5028446;28;20535;-42
2021/08/18 08:04:17;;;;;;;2.15;1.90;;;18.30;99.90;;;;;;5029389;28;20043;-43
2021/08/18 08:06:44;;;;;;;4.40;2.28;;;18.40;99.90;;;;;;5029486;28;20032;-38
2021/08/18 08:09:17;;;;;;;2.38;1.80;;;18.40;99.90;;;;;;5028254;28;20108;-41
2021/08/18 08:11:42;;;;;;;2.20;2.00;;;18.40;99.90;;;;;;5027744;28;20506;-41
2021/08/18 08:14:08;;;;;;;3.70;2.35;;;18.40;99.90;;;;;;5028508;28;20116;-41
2021/08/18 08:16:34;;;;;;;3.97;1.90;;;18.40;99.90;;;;;;5029175;28;20545;-41
2021/08/18 08:19:13;;;;;;;2.40;2.20;;;18.50;99.90;;;;;;5028894;28;20049;-42
2021/08/18 08:21:39;;;;;;;2.58;2.00;;;18.50;99.90;;;;;;5028365;28;20026;-38
2021/08/18 08:24:04;;;;;;;5.28;2.45;;;18.60;99.90;;;;;;5028830;28;20037;-43
2021/08/18 08:26:30;;;;;;;2.40;1.88;;;18.70;99.90;;;;;;5028995;28;20030;-44
2021/08/18 08:28:56;;;;;;;2.22;1.65;;;18.70;99.90;;;;;;5029052;28;20042;-43
2021/08/18 08:31:24;;;;;;;2.58;2.10;;;18.80;99.90;;;;;;5028519;28;20492;-43
2021/08/18 08:33:50;;;;;;;2.58;2.38;;;19.00;99.90;;;;;;5028044;28;20029;-40
2021/08/18 08:36:16;;;;;;;3.85;2.22;;;19.10;99.90;;;;;;5029429;28;20072;-42
2021/08/18 08:38:41;;;;;;;3.78;2.40;;;19.20;99.90;;;;;;5028101;28;20057;-42
2021/08/18 08:41:08;;;;;;;3.38;2.35;;;19.30;99.90;;;;;;5028380;28;20099;-38
2021/08/18 08:43:33;;;;;;;4.00;2.58;;;19.40;99.90;;;;;;5028655;28;20100;-42
2021/08/18 08:45:59;;;;;;;2.75;2.45;;;19.50;99.90;;;;;;5027681;28;20426;-40
2021/08/18 08:48:25;;;;;;;4.85;2.95;;;19.60;99.90;;;;;;5028780;28;20022;-38
2021/08/18 08:50:51;;;;;;;3.70;2.67;;;19.70;99.90;;;;;;5028709;28;20104;-43
2021/08/18 08:53:17;;;;;;;3.28;2.72;;;19.70;99.90;;;;;;5028655;28;20112;-41
2021/08/18 08:55:44;;;;;;;4.72;2.60;;;19.80;99.90;;;;;;5028570;28;20018;-43
2021/08/18 08:58:09;;;;;;;3.35;2.25;;;19.80;99.90;;;;;;5027970;28;20139;-42
2021/08/18 09:00:35;;;;;;;2.85;2.35;;;19.80;99.90;;;;;;5029116;28;20482;-39
2021/08/18 09:03:15;;;;;;;4.40;3.08;;;19.90;99.90;;;;;;5027929;28;20354;-40
2021/08/18 09:05:42;;;;;;;3.05;2.22;;;20.00;99.90;;;;;;5026641;28;20110;-41
2021/08/18 09:08:14;;;;;;;3.65;2.83;;;20.00;99.90;;;;;;5028077;28;20021;-40
2021/08/18 09:10:41;;;;;;;3.22;2.92;;;20.10;99.90;;;;;;5024614;28;20022;-37
2021/08/18 09:13:10;;;;;;;3.35;3.03;;;20.10;99.90;;;;;;5028154;28;20041;-40
2021/08/18 09:15:37;;;;;;;4.97;3.30;;;20.20;99.90;;;;;;5028339;28;20029;-42
2021/08/18 09:18:02;;;;;;;4.20;3.22;;;20.20;99.90;;;;;;5028483;28;20022;-39
2021/08/18 09:20:34;;;;;;;3.20;2.90;;;20.20;99.90;;;;;;5028412;28;20175;-41
2021/08/18 09:23:02;;;;;;;3.75;3.25;;;20.20;99.90;;;;;;5029495;28;20029;-40
2021/08/18 09:25:30;;;;;;;4.25;2.70;;;20.20;99.90;;;;;;5032534;28;20104;-42
2021/08/18 09:28:04;;;;;;;4.43;3.08;;;20.30;99.90;;;;;;5012332;28;20072;-41
2021/08/18 09:30:36;;;;;;;5.45;3.40;;;20.40;99.90;;;;;;5027244;28;20060;-43
2021/08/18 09:33:10;;;;;;;4.53;3.20;;;20.40;99.90;;;;;;5032136;28;20041;-39
2021/08/18 09:35:36;;;;;;;4.03;3.35;;;20.50;99.90;;;;;;5032125;28;20072;-42
2021/08/18 09:38:05;;;;;;;6.53;3.60;;;20.60;99.90;;;;;;5032147;28;20021;-41
2021/08/18 09:40:37;;;;;;;4.68;3.78;;;20.60;99.90;;;;;;5031239;28;20017;-43
2021/08/18 09:43:12;;;;;;;4.55;3.97;;;20.70;99.90;;;;;;5031534;28;20714;-43
2021/08/18 09:45:40;;;;;;;3.90;3.50;;;20.70;99.90;;;;;;5031353;28;20026;-42
2021/08/18 09:48:09;;;;;;;5.72;3.95;;;20.70;99.90;;;;;;5031205;28;20026;-43
2021/08/18 09:50:45;;;;;;;3.78;3.33;;;20.80;99.90;;;;;;5032147;28;20108;-42
2021/08/18 09:53:26;;;;;;;5.20;3.72;;;20.90;99.90;;;;;;5032116;28;20465;-38
2021/08/18 09:55:59;;;;;;;4.13;3.75;;;21.00;99.90;;;;;;5030330;28;20071;-42
2021/08/18 09:58:27;;;;;;;5.85;5.25;;;21.10;99.90;;;;;;5030356;28;20117;-43
2021/08/18 10:00:55;;;;;;;5.65;5.15;;;21.10;99.90;;;;;;5030437;28;20473;-41
2021/08/18 10:03:21;;;;;;;5.80;5.22;;;21.10;99.90;;;;;;5031289;28;20068;-41
2021/08/18 10:05:50;;;;;;;5.18;4.55;;;21.10;99.90;;;;;;5030539;28;20453;-43
2021/08/18 10:08:18;;;;;;;6.78;6.18;;;21.10;99.90;;;;;;5031193;28;20022;-42
2021/08/18 10:10:44;;;;;;;7.38;6.68;;;21.20;99.90;;;;;;5030775;28;20097;-41
2021/08/18 10:13:10;;;;;;;6.22;5.63;;;21.20;99.90;;;;;;5030547;28;20048;-42
2021/08/18 10:15:37;;;;;;;6.10;5.50;;;21.30;99.90;;;;;;5030709;28;20079;-42
2021/08/18 10:18:05;;;;;;;7.78;7.05;;;21.40;99.90;;;;;;5030854;28;20018;-42
2021/08/18 10:20:32;;;;;;;7.30;6.70;;;21.30;99.90;;;;;;5030925;28;20027;-42
2021/08/18 10:23:02;;;;;;;7.57;6.88;;;21.10;99.90;;;;;;5029702;28;20013;-42
2021/08/18 10:25:49;;;;;;;8.25;7.55;;;21.00;99.90;;;;;;5030900;28;20029;-39
2021/08/18 10:28:18;;;;;;;7.95;7.18;;;20.80;99.90;;;;;;5030680;28;20075;-42
2021/08/18 10:30:54;;;;;;;8.20;7.50;;;20.70;99.90;;;;;;5030172;28;20049;-44
2021/08/18 10:33:50;;;;;;;7.10;6.53;;;20.60;99.90;;;;;;5030010;28;20033;-39
2021/08/18 10:36:51;;;;;;;8.55;7.75;;;20.60;99.90;;;;;;5029943;28;20037;-38
2021/08/18 10:39:22;;;;;;;6.93;6.32;;;20.50;99.90;;;;;;5041789;28;20041;-39
2021/08/18 10:42:03;;;;;;;6.93;6.32;;;20.60;99.90;;;;;;5030164;28;20021;-39
2021/08/18 10:44:48;;;;;;;5.97;5.47;;;20.70;99.90;;;;;;5030131;28;20032;-40
2021/08/18 10:47:29;;;;;;;7.32;5.65;;;20.80;99.90;;;;;;5024366;28;20064;-40
2021/08/18 10:50:24;;;;;;;5.47;5.00;;;20.80;99.90;;;;;;5035032;28;20028;-37
2021/08/18 10:52:51;;;;;;;5.53;4.75;;;20.80;99.90;;;;;;5038080;28;20043;-40
2021/08/18 10:55:24;;;;;;;7.97;6.00;;;20.70;99.90;;;;;;5035980;28;20433;-36
2021/08/18 10:57:54;;;;;;;7.93;7.18;;;20.70;99.90;;;;;;5030357;28;20025;-42
2021/08/18 11:00:37;;;;;;;7.13;6.07;;;20.50;99.90;;;;;;5029894;28;20129;-38
2021/08/18 11:03:05;;;;;;;5.75;5.22;;;20.40;99.90;;;;;;5029599;28;20511;-38
2021/08/18 11:05:42;;;;;;;4.90;4.32;;;20.30;99.90;;;;;;5029831;28;20033;-40
2021/08/18 11:08:12;;;;;;;6.25;4.05;;;20.00;99.90;;;;;;5029961;28;20024;-41
2021/08/18 11:10:50;;;;;;;5.00;4.50;;;19.80;99.90;;;;;;5029792;28;20025;-41
2021/08/18 11:13:16;;;;;;;5.50;4.30;;;19.50;99.90;;;;;;5029020;28;20061;-40
2021/08/18 11:15:49;;;;;;;5.03;4.63;;;19.50;99.90;;;;;;5030043;28;20183;-40
2021/08/18 11:18:18;;;;;;;5.47;5.00;;;19.50;99.90;;;;;;5029793;28;20022;-42
2021/08/18 11:20:48;;;;;;;4.20;3.80;;;19.50;99.90;;;;;;5029398;28;20025;-40
2021/08/18 11:23:14;;;;;;;4.75;4.35;;;19.60;99.90;;;;;;5030143;28;20025;-42
2021/08/18 11:25:43;;;;;;;5.00;3.97;;;19.80;99.90;;;;;;5034217;28;20024;-43
2021/08/18 11:28:18;;;;;;;4.07;3.67;;;20.00;99.90;;;;;;5029885;28;20028;-41
2021/08/18 11:30:55;;;;;;;4.40;4.00;;;20.30;99.90;;;;;;5030084;28;20045;-42
2021/08/18 11:33:22;;;;;;;4.68;4.28;;;20.60;99.90;;;;;;5029642;28;20033;-38
2021/08/18 11:35:49;;;;;;;4.45;4.05;;;20.80;99.90;;;;;;5029302;28;20021;-35
2021/08/18 11:38:15;;;;;;;4.05;3.75;;;21.00;99.90;;;;;;5029859;28;20033;-41
2021/08/18 11:40:42;;;;;;;3.83;3.53;;;21.20;99.90;;;;;;5031859;28;20021;-39
2021/08/18 11:43:08;;;;;;;3.20;3.00;;;21.30;99.90;;;;;;5029702;28;20026;-42
2021/08/18 11:45:38;;;;;;;2.95;2.75;;;21.30;99.90;;;;;;5029357;28;20485;-40
2021/08/18 11:48:12;;;;;;;2.92;2.72;;;21.30;99.90;;;;;;5029035;28;20108;-41
2021/08/18 11:50:39;;;;;;;3.10;2.90;;;21.20;99.90;;;;;;5043755;28;20055;-40
2021/08/18 11:53:07;;;;;;;3.58;3.28;;;21.20;99.90;;;;;;5037955;28;20506;-41
2021/08/18 11:55:34;;;;;;;3.47;3.15;;;21.10;99.90;;;;;;5037508;28;20024;-40
2021/08/18 11:58:02;;;;;;;5.25;4.75;;;21.00;99.90;;;;;;5042045;28;20017;-36
2021/08/18 12:00:28;;;;;;;5.40;4.90;;;21.00;99.90;;;;;;5034658;28;20044;-38
2021/08/18 12:02:55;;;;;;;5.95;5.28;;;20.90;99.90;;;;;;5031339;28;20049;-39
2021/08/18 12:05:29;;;;;;;6.47;5.88;;;20.80;99.90;;;;;;5036892;28;20026;-41
2021/08/18 12:08:09;;;;;;;6.05;5.53;;;20.80;99.90;;;;;;5028626;28;20040;-41
2021/08/18 12:10:40;;;;;;;8.20;7.40;;;20.70;99.90;;;;;;5021067;28;20022;-40
2021/08/18 12:13:11;;;;;;;8.82;7.97;;;20.60;99.90;;;;;;5028142;28;20462;-39
2021/08/18 12:15:44;;;;;;;9.60;8.60;;;20.60;99.90;;;;;;5028265;28;20013;-40
2021/08/18 12:18:33;;;;;;;8.15;7.43;;;20.50;99.90;;;;;;5029208;28;20099;-42
2021/08/18 12:21:25;;;;;;;9.05;8.27;;;20.70;99.90;;;;;;5028717;28;20029;-42
2021/08/18 12:23:52;;;;;;;;;;;20.90;99.90;;;;;;5008964;28;20026;-39
2021/08/18 12:26:32;;;;;;;9.02;8.18;;;21.10;99.90;;;;;;5023065;28;19905;-40
2021/08/18 12:29:00;;;;;;;10.25;9.00;;;21.30;99.90;;;;;;5027710;28;20037;-41
2021/08/18 12:31:27;;;;;;;10.80;9.70;;;21.50;99.90;;;;;;5029067;28;20042;-40
2021/08/18 12:34:09;;;;;;;10.15;8.48;;;21.60;99.90;;;;;;5040967;28;20443;-36
2021/08/18 12:36:35;;;;;;;8.20;7.40;;;21.60;99.90;;;;;;5033413;28;20037;-36
2021/08/18 12:39:01;;;;;;;7.68;6.93;;;21.50;99.90;;;;;;5028112;28;20028;-38
2021/08/18 12:41:30;;;;;;;7.28;6.57;;;21.50;99.90;;;;;;5028821;28;20088;-41
2021/08/18 12:44:12;;;;;;;7.97;6.55;;;21.50;99.90;;;;;;5034495;28;20477;-41
2021/08/18 12:46:41;;;;;;;8.38;7.03;;;21.50;99.90;;;;;;5035936;28;20017;-41
2021/08/18 12:49:33;;;;;;;9.38;7.05;;;21.50;99.90;;;;;;5038879;28;20457;-39
2021/08/18 12:52:00;;;;;;;;;;;21.30;99.90;;;;;;5032479;28;20117;-41